createdAt,value
2019-05-14T00:02:25.356Z,6.24
2019-05-14T00:04:51.507Z,6.28
2019-05-14T00:07:18.006Z,6.30
2019-05-14T00:09:44.121Z,6.36
2019-05-14T00:12:11.343Z,6.39
2019-05-14T00:14:40.360Z,6.43
2019-05-14T00:17:06.139Z,6.46
2019-05-14T00:19:33.366Z,6.48
2019-05-14T00:21:59.519Z,6.50
2019-05-14T00:24:26.407Z,6.52
2019-05-14T00:26:52.760Z,6.55
2019-05-14T00:29:18.862Z,6.55
2019-05-14T00:31:44.990Z,6.54
2019-05-14T00:34:11.358Z,6.52
2019-05-14T00:36:37.384Z,6.50
2019-05-14T00:39:05.210Z,6.50
2019-05-14T00:41:31.584Z,6.50
2019-05-14T00:43:57.755Z,6.50
2019-05-14T00:46:23.988Z,6.49
2019-05-14T00:48:51.400Z,6.49
2019-05-14T00:51:17.733Z,6.48
2019-05-14T00:53:43.862Z,6.50
2019-05-14T00:56:11.047Z,6.50
2019-05-14T00:58:37.346Z,6.52
2019-05-14T01:01:03.614Z,6.50
2019-05-14T01:03:32.168Z,6.49
2019-05-14T01:05:58.321Z,6.51
2019-05-14T01:08:24.542Z,6.51
2019-05-14T01:10:51.346Z,6.50
2019-05-14T01:13:17.555Z,6.50
2019-05-14T01:15:43.699Z,6.52
2019-05-14T01:18:12.136Z,6.51
2019-05-14T01:20:38.395Z,6.50
2019-05-14T01:23:04.742Z,6.50
2019-05-14T01:25:31.842Z,6.46
2019-05-14T01:27:58.510Z,6.42
2019-05-14T01:30:24.826Z,6.41
2019-05-14T01:32:51.428Z,6.40
2019-05-14T01:35:17.614Z,6.36
2019-05-14T01:37:43.625Z,6.36
2019-05-14T01:40:11.466Z,6.33
2019-05-14T01:42:37.892Z,6.31
2019-05-14T01:45:04.668Z,6.29
2019-05-14T01:47:31.840Z,6.28
2019-05-14T01:49:58.469Z,6.26
2019-05-14T01:52:24.726Z,6.24
2019-05-14T01:54:51.493Z,6.23
2019-05-14T01:57:18.066Z,6.21
2019-05-14T01:59:44.214Z,6.19
2019-05-14T02:02:11.658Z,6.15
2019-05-14T02:04:38.382Z,6.12
2019-05-14T02:07:05.249Z,6.09
2019-05-14T02:09:32.882Z,6.09
2019-05-14T02:12:02.186Z,6.07
2019-05-14T02:14:31.447Z,6.03
2019-05-14T02:16:57.676Z,5.97
2019-05-14T02:19:23.905Z,5.94
2019-05-14T02:21:51.413Z,5.91
2019-05-14T02:24:17.711Z,5.90
2019-05-14T02:26:43.860Z,5.86
2019-05-14T02:29:12.302Z,5.82
2019-05-14T02:31:39.269Z,5.78
2019-05-14T02:34:10.196Z,5.75
2019-05-14T02:36:36.395Z,5.69
2019-05-14T02:39:04.982Z,5.67
2019-05-14T02:41:31.728Z,5.68
2019-05-14T02:43:59.361Z,5.68
2019-05-14T02:46:25.810Z,5.67
2019-05-14T02:48:52.226Z,5.64
2019-05-14T02:51:19.807Z,5.63
2019-05-14T02:53:49.566Z,5.62
2019-05-14T02:56:15.958Z,5.62
2019-05-14T02:58:42.212Z,5.64
2019-05-14T03:01:09.476Z,5.63
2019-05-14T03:03:36.180Z,5.64
2019-05-14T03:06:02.752Z,5.64
2019-05-14T03:08:30.496Z,5.64
2019-05-14T03:10:59.965Z,5.63
2019-05-14T03:13:25.191Z,5.61
2019-05-14T03:15:51.485Z,5.59
2019-05-14T03:18:19.850Z,3.88
2019-05-14T03:20:49.788Z,5.54
2019-05-14T03:23:18.647Z,5.49
2019-05-14T03:25:42.690Z,5.43
2019-05-14T03:28:09.430Z,5.38
2019-05-14T03:30:35.796Z,5.32
2019-05-14T03:33:03.602Z,5.29
2019-05-14T03:35:41.601Z,3.58
2019-05-14T03:38:00.420Z,5.26
2019-05-14T03:40:29.197Z,5.26
2019-05-14T03:42:54.287Z,5.26
2019-05-14T03:45:20.654Z,5.29
2019-05-14T03:47:50.134Z,5.31
2019-05-14T03:50:14.853Z,5.31
2019-05-14T03:52:41.748Z,5.34
2019-05-14T03:55:09.350Z,5.39
2019-05-14T03:57:36.007Z,5.45
2019-05-14T04:00:06.027Z,5.47
2019-05-14T04:02:32.440Z,5.47
2019-05-14T04:04:59.962Z,5.47
2019-05-14T04:07:30.418Z,5.47
2019-05-14T04:09:59.321Z,5.44
2019-05-14T04:12:29.249Z,5.40
2019-05-14T04:14:59.613Z,5.39
2019-05-14T04:17:36.143Z,5.34
2019-05-14T04:19:55.527Z,5.31
2019-05-14T04:22:22.762Z,5.30
2019-05-14T04:24:50.858Z,5.28
2019-05-14T04:27:20.266Z,5.27
2019-05-14T04:29:50.173Z,5.27
2019-05-14T04:32:20.059Z,5.28
2019-05-14T04:34:49.850Z,5.31
2019-05-14T04:37:16.044Z,5.33
2019-05-14T04:39:42.853Z,5.35
2019-05-14T04:42:09.878Z,5.40
2019-05-14T04:44:40.012Z,5.45
2019-05-14T04:47:22.881Z,5.50
2019-05-14T04:49:32.749Z,5.57
2019-05-14T04:51:59.715Z,5.63
2019-05-14T04:54:26.137Z,5.67
2019-05-14T04:56:53.502Z,5.72
2019-05-14T04:59:19.510Z,5.76
2019-05-14T05:01:49.015Z,5.79
2019-05-14T05:04:14.320Z,5.81
2019-05-14T05:06:40.485Z,5.84
2019-05-14T05:09:09.388Z,5.85
2019-05-14T05:11:39.427Z,5.87
2019-05-14T05:14:04.581Z,5.92
2019-05-14T05:16:31.588Z,4.39
2019-05-14T05:18:59.392Z,5.98
2019-05-14T05:21:28.154Z,6.02
2019-05-14T05:23:54.428Z,6.07
2019-05-14T05:26:20.883Z,6.12
2019-05-14T05:29:00.087Z,6.19
2019-05-14T05:31:15.190Z,6.24
2019-05-14T05:33:41.650Z,6.28
2019-05-14T05:36:09.450Z,6.33
2019-05-14T05:38:35.966Z,6.37
2019-05-14T05:41:02.865Z,6.41
2019-05-14T05:43:29.031Z,6.49
2019-05-14T05:45:55.340Z,6.57
2019-05-14T05:48:21.931Z,6.64
2019-05-14T05:50:48.567Z,6.65
2019-05-14T05:53:14.968Z,6.69
2019-05-14T05:55:41.557Z,6.73
2019-05-14T05:58:08.679Z,6.79
2019-05-14T06:00:40.044Z,6.87
2019-05-14T06:03:10.175Z,6.91
2019-05-14T06:05:34.463Z,6.95
2019-05-14T06:08:01.185Z,6.99
2019-05-14T06:10:29.188Z,7.04
2019-05-14T06:12:55.471Z,7.11
2019-05-14T06:15:21.774Z,7.15
2019-05-14T06:17:49.186Z,7.23
2019-05-14T06:20:15.744Z,7.32
2019-05-14T06:22:42.159Z,7.36
2019-05-14T06:25:10.924Z,7.36
2019-05-14T06:27:38.041Z,7.38
2019-05-14T06:30:05.991Z,7.41
2019-05-14T06:32:32.407Z,7.46
2019-05-14T06:34:59.419Z,7.53
2019-05-14T06:37:25.822Z,7.57
2019-05-14T06:39:52.476Z,7.62
2019-05-14T06:42:19.321Z,7.66
2019-05-14T06:44:45.652Z,7.73
2019-05-14T06:47:12.085Z,7.82
2019-05-14T06:49:38.704Z,7.94
2019-05-14T06:52:05.272Z,7.97
2019-05-14T06:54:31.583Z,8.01
2019-05-14T06:56:58.311Z,8.13
2019-05-14T06:59:25.039Z,8.21
2019-05-14T07:01:51.215Z,8.27
2019-05-14T07:04:18.180Z,8.46
2019-05-14T07:06:44.590Z,8.67
2019-05-14T07:09:10.659Z,9.00
2019-05-14T07:11:38.900Z,9.32
2019-05-14T07:14:08.174Z,9.77
2019-05-14T07:16:33.220Z,10.16
2019-05-14T07:18:59.737Z,10.48
2019-05-14T07:21:25.915Z,10.90
2019-05-14T07:23:52.713Z,11.25
2019-05-14T07:26:19.662Z,11.45
2019-05-14T07:28:48.581Z,11.66
2019-05-14T07:31:14.200Z,11.87
2019-05-14T07:33:40.819Z,12.13
2019-05-14T07:36:08.809Z,10.99
2019-05-14T07:38:35.198Z,12.09
2019-05-14T07:41:01.462Z,12.19
2019-05-14T07:43:28.860Z,11.04
2019-05-14T07:45:55.054Z,12.50
2019-05-14T07:48:21.129Z,12.76
2019-05-14T07:50:51.302Z,13.03
2019-05-14T07:53:17.878Z,13.19
2019-05-14T07:55:43.886Z,13.40
2019-05-14T07:58:10.121Z,13.67
2019-05-14T08:00:36.331Z,13.93
2019-05-14T08:03:03.047Z,14.16
2019-05-14T08:05:29.211Z,14.00
2019-05-14T08:07:55.866Z,13.80
2019-05-14T08:10:22.340Z,13.78
2019-05-14T08:12:48.720Z,12.80
2019-05-14T08:15:21.535Z,12.14
2019-05-14T08:17:44.099Z,13.59
2019-05-14T08:20:11.417Z,13.83
2019-05-14T08:22:39.081Z,13.89
2019-05-14T08:25:08.545Z,14.05
2019-05-14T08:27:35.140Z,14.37
2019-05-14T08:30:05.389Z,15.02
2019-05-14T08:32:32.905Z,15.37
2019-05-14T08:35:00.351Z,15.78
2019-05-14T08:37:27.953Z,15.89
2019-05-14T08:39:55.671Z,16.13
2019-05-14T08:42:22.008Z,16.10
2019-05-14T08:44:51.257Z,15.33
2019-05-14T08:47:18.341Z,14.44
2019-05-14T08:49:49.403Z,13.87
2019-05-14T08:52:16.058Z,13.49
2019-05-14T08:54:42.053Z,13.11
2019-05-14T08:57:09.780Z,12.73
2019-05-14T08:59:39.622Z,12.60
2019-05-14T09:02:06.807Z,13.04
2019-05-14T09:04:34.682Z,13.28
2019-05-14T09:07:01.038Z,13.18
2019-05-14T09:09:29.020Z,13.13
2019-05-14T09:11:56.074Z,13.33
2019-05-14T09:14:22.261Z,12.50
2019-05-14T09:16:51.094Z,13.71
2019-05-14T09:19:19.268Z,14.24
2019-05-14T09:21:45.070Z,14.43
2019-05-14T09:24:11.865Z,14.44
2019-05-14T09:26:39.107Z,14.57
2019-05-14T09:29:19.505Z,14.50
2019-05-14T09:31:39.109Z,14.43
2019-05-14T09:34:05.444Z,13.90
2019-05-14T09:36:31.682Z,13.41
2019-05-14T09:38:58.414Z,13.40
2019-05-14T09:41:27.745Z,13.68
2019-05-14T09:43:53.201Z,14.14
2019-05-14T09:46:19.375Z,14.15
2019-05-14T09:48:45.645Z,13.91
2019-05-14T09:51:11.974Z,13.74
2019-05-14T09:53:38.660Z,13.57
2019-05-14T09:56:06.049Z,13.51
2019-05-14T09:58:32.241Z,13.56
2019-05-14T10:01:02.434Z,13.72
2019-05-14T10:03:28.863Z,13.85
2019-05-14T10:05:55.213Z,13.89
2019-05-14T10:08:22.210Z,13.94
2019-05-14T10:10:49.009Z,13.77
2019-05-14T10:13:15.226Z,13.54
2019-05-14T10:15:41.514Z,13.34
2019-05-14T10:18:11.744Z,13.22
2019-05-14T10:20:42.469Z,12.98
2019-05-14T10:23:04.255Z,12.65
2019-05-14T10:25:31.017Z,12.48
2019-05-14T10:27:59.068Z,11.08
2019-05-14T10:30:25.580Z,12.34
2019-05-14T10:32:54.031Z,12.34
2019-05-14T10:35:20.728Z,12.26
2019-05-14T10:37:47.099Z,12.20
2019-05-14T10:40:14.516Z,12.16
2019-05-14T10:42:40.787Z,12.30
2019-05-14T10:45:12.433Z,12.79
2019-05-14T10:47:38.854Z,13.33
2019-05-14T10:50:06.237Z,14.32
2019-05-14T10:52:32.814Z,14.82
2019-05-14T10:54:59.319Z,14.66
2019-05-14T10:57:25.543Z,14.00
2019-05-14T10:59:51.786Z,13.40
2019-05-14T11:02:18.777Z,12.99
2019-05-14T11:04:45.013Z,12.62
2019-05-14T11:07:11.376Z,12.28
2019-05-14T11:09:38.230Z,12.00
2019-05-14T11:12:04.450Z,11.93
2019-05-14T11:14:31.918Z,12.17
2019-05-14T11:16:59.254Z,12.47
2019-05-14T11:19:28.031Z,12.64
2019-05-14T11:21:53.932Z,12.57
2019-05-14T11:24:22.259Z,12.46
2019-05-14T11:26:49.060Z,12.39
2019-05-14T11:29:18.384Z,12.60
2019-05-14T11:31:45.079Z,12.80
2019-05-14T11:34:15.626Z,13.03
2019-05-14T11:36:49.849Z,13.38
2019-05-14T11:39:20.420Z,12.44
2019-05-14T11:41:49.243Z,12.67
2019-05-14T11:44:15.609Z,13.79
2019-05-14T11:46:51.352Z,13.53
2019-05-14T11:49:11.132Z,13.48
2019-05-14T11:51:59.294Z,13.98
2019-05-14T11:54:05.967Z,14.23
2019-05-14T11:56:32.283Z,14.20
2019-05-14T11:58:59.431Z,14.03
2019-05-14T12:01:29.843Z,13.67
2019-05-14T12:03:59.566Z,13.24
2019-05-14T12:06:24.699Z,12.90
2019-05-14T12:08:52.382Z,12.75
2019-05-14T12:11:19.593Z,12.79
2019-05-14T12:13:48.467Z,12.93
2019-05-14T12:16:15.437Z,12.99
2019-05-14T12:18:42.033Z,12.19
2019-05-14T12:21:09.079Z,13.22
2019-05-14T12:23:39.146Z,13.28
2019-05-14T12:26:05.158Z,13.55
2019-05-14T12:28:31.870Z,13.91
2019-05-14T12:30:58.505Z,14.32
2019-05-14T12:33:25.458Z,15.17
2019-05-14T12:35:55.352Z,15.01
2019-05-14T12:38:22.494Z,14.96
2019-05-14T12:40:49.197Z,14.94
2019-05-14T12:43:18.775Z,14.81
2019-05-14T12:45:51.025Z,14.52
2019-05-14T12:48:19.973Z,14.76
2019-05-14T12:50:50.908Z,15.13
2019-05-14T12:53:23.109Z,15.16
2019-05-14T12:55:50.828Z,15.33
2019-05-14T12:58:20.188Z,15.84
2019-05-14T13:00:49.380Z,16.38
2019-05-14T13:03:16.097Z,16.47
2019-05-14T13:05:43.841Z,16.35
2019-05-14T13:08:15.350Z,16.05
2019-05-14T13:10:42.118Z,15.70
2019-05-14T13:13:08.589Z,15.45
2019-05-14T13:15:35.731Z,15.38
2019-05-14T13:18:04.177Z,15.19
2019-05-14T13:20:38.809Z,13.88
2019-05-14T13:23:04.927Z,15.15
2019-05-14T13:25:32.102Z,15.34
2019-05-14T13:28:08.988Z,15.46
2019-05-14T13:30:38.227Z,15.27
2019-05-14T13:33:08.654Z,13.86
2019-05-14T13:35:35.026Z,15.00
2019-05-14T13:38:13.923Z,15.08
2019-05-14T13:40:39.192Z,15.11
2019-05-14T13:43:06.135Z,14.23
2019-05-14T13:45:34.651Z,14.92
2019-05-14T13:48:03.057Z,15.35
2019-05-14T13:50:31.168Z,15.83
2019-05-14T13:53:02.696Z,16.28
2019-05-14T13:55:30.426Z,16.46
2019-05-14T13:57:59.623Z,16.14
2019-05-14T14:00:25.521Z,15.99
2019-05-14T14:02:51.788Z,15.65
2019-05-14T14:05:20.291Z,15.22
2019-05-14T14:07:48.563Z,14.80
2019-05-14T14:10:15.492Z,14.39
2019-05-14T14:12:41.932Z,14.04
2019-05-14T14:15:09.901Z,14.04
2019-05-14T14:17:40.577Z,14.19
2019-05-14T14:20:15.368Z,14.47
2019-05-14T14:22:43.155Z,14.44
2019-05-14T14:25:10.490Z,14.27
2019-05-14T14:27:40.735Z,14.27
2019-05-14T14:30:08.990Z,14.30
2019-05-14T14:32:34.703Z,14.55
2019-05-14T14:35:01.076Z,14.80
2019-05-14T14:37:28.653Z,15.11
2019-05-14T14:39:55.874Z,15.14
2019-05-14T14:42:24.731Z,15.08
2019-05-14T14:44:51.096Z,14.91
2019-05-14T14:47:19.057Z,14.50
2019-05-14T14:49:45.730Z,14.22
2019-05-14T14:52:12.766Z,14.06
2019-05-14T14:54:39.500Z,14.01
2019-05-14T14:57:08.459Z,14.26
2019-05-14T14:59:34.956Z,14.66
2019-05-14T15:02:02.571Z,15.15
2019-05-14T15:04:29.094Z,15.67
2019-05-14T15:06:55.305Z,16.07
2019-05-14T15:09:21.918Z,16.20
2019-05-14T15:11:49.191Z,16.11
2019-05-14T15:14:15.349Z,15.89
2019-05-14T15:16:42.051Z,15.61
2019-05-14T15:19:09.475Z,15.46
2019-05-14T15:21:35.693Z,15.29
2019-05-14T15:24:10.000Z,15.17
2019-05-14T15:26:33.121Z,14.95
2019-05-14T15:29:00.752Z,14.79
2019-05-14T15:31:29.268Z,14.60
2019-05-14T15:33:55.780Z,14.45
2019-05-14T15:36:23.826Z,14.28
2019-05-14T15:38:51.344Z,14.15
2019-05-14T15:41:20.245Z,14.50
2019-05-14T15:43:47.070Z,14.75
2019-05-14T15:46:15.216Z,14.83
2019-05-14T15:48:42.340Z,14.81
2019-05-14T15:51:11.472Z,14.86
2019-05-14T15:53:38.737Z,15.15
2019-05-14T15:56:08.275Z,15.46
2019-05-14T15:58:35.954Z,15.75
2019-05-14T16:01:03.435Z,15.97
2019-05-14T16:03:29.994Z,16.02
2019-05-14T16:05:59.819Z,15.95
2019-05-14T16:08:29.432Z,15.85
2019-05-14T16:10:55.098Z,15.84
2019-05-14T16:13:23.491Z,15.42
2019-05-14T16:15:49.567Z,15.15
2019-05-14T16:18:19.679Z,13.49
2019-05-14T16:20:44.239Z,14.61
2019-05-14T16:23:11.220Z,13.26
2019-05-14T16:25:38.089Z,13.32
2019-05-14T16:28:04.439Z,14.45
2019-05-14T16:30:30.938Z,14.19
2019-05-14T16:32:59.837Z,13.91
2019-05-14T16:35:25.853Z,13.75
2019-05-14T16:37:52.356Z,13.73
2019-05-14T16:40:19.439Z,13.77
2019-05-14T16:42:48.463Z,13.78
2019-05-14T16:45:14.573Z,13.88
2019-05-14T16:47:40.774Z,14.06
2019-05-14T16:50:09.744Z,14.21
2019-05-14T16:52:41.680Z,14.34
2019-05-14T16:55:20.312Z,14.48
2019-05-14T16:57:35.713Z,14.69
2019-05-14T17:00:09.419Z,14.71
2019-05-14T17:02:34.836Z,14.55
2019-05-14T17:05:01.220Z,14.28
2019-05-14T17:07:28.848Z,13.98
2019-05-14T17:09:55.204Z,13.74
2019-05-14T17:12:22.889Z,13.60
2019-05-14T17:14:49.342Z,13.44
2019-05-14T17:17:16.354Z,13.32
2019-05-14T17:19:43.478Z,13.23
2019-05-14T17:22:24.558Z,13.14
2019-05-14T17:24:40.151Z,13.11
2019-05-14T17:27:08.784Z,13.08
2019-05-14T17:29:35.107Z,13.05
2019-05-14T17:32:02.440Z,13.01
2019-05-14T17:34:32.266Z,12.92
2019-05-14T17:37:00.206Z,12.77
2019-05-14T17:39:26.567Z,12.69
2019-05-14T17:41:52.678Z,12.64
2019-05-14T17:44:19.299Z,12.61
2019-05-14T17:46:45.483Z,12.61
2019-05-14T17:49:11.951Z,12.60
2019-05-14T17:51:39.092Z,12.52
2019-05-14T17:54:06.071Z,12.45
2019-05-14T17:56:32.508Z,12.37
2019-05-14T17:58:59.260Z,12.29
2019-05-14T18:01:28.767Z,12.15
2019-05-14T18:03:58.433Z,12.03
2019-05-14T18:06:25.125Z,11.91
2019-05-14T18:08:51.523Z,11.84
2019-05-14T18:11:19.115Z,11.77
2019-05-14T18:13:48.265Z,11.69
2019-05-14T18:16:14.662Z,11.57
2019-05-14T18:18:40.917Z,11.49
2019-05-14T18:21:09.288Z,11.35
2019-05-14T18:23:39.548Z,11.23
2019-05-14T18:26:08.669Z,11.15
2019-05-14T18:28:33.702Z,11.05
2019-05-14T18:31:00.133Z,10.97
2019-05-14T18:33:30.802Z,10.89
2019-05-14T18:36:02.658Z,10.81
2019-05-14T18:38:29.221Z,10.73
2019-05-14T18:40:55.712Z,10.69
2019-05-14T18:43:22.701Z,10.63
2019-05-14T18:45:49.242Z,10.58
2019-05-14T18:48:19.411Z,10.50
2019-05-14T18:50:48.418Z,10.44
2019-05-14T18:53:14.905Z,10.38
2019-05-14T18:55:40.928Z,10.32
2019-05-14T18:58:08.551Z,10.22
2019-05-14T19:00:38.660Z,10.16
2019-05-14T19:03:12.203Z,10.08
2019-05-14T19:05:38.227Z,10.04
2019-05-14T19:08:04.517Z,9.98
2019-05-14T19:10:30.959Z,9.92
2019-05-14T19:12:58.815Z,9.89
2019-05-14T19:15:25.378Z,9.83
2019-05-14T19:17:51.634Z,9.79
2019-05-14T19:20:19.254Z,9.71
2019-05-14T19:22:48.877Z,9.61
2019-05-14T19:25:15.147Z,9.55
2019-05-14T19:27:41.715Z,9.48
2019-05-14T19:30:08.672Z,9.41
2019-05-14T19:32:40.719Z,9.33
2019-05-14T19:35:08.684Z,9.24
2019-05-14T19:37:35.163Z,9.19
2019-05-14T19:40:01.962Z,9.13
2019-05-14T19:42:28.745Z,9.08
2019-05-14T19:44:59.606Z,8.98
2019-05-14T19:47:24.593Z,8.88
2019-05-14T19:49:52.867Z,8.78
2019-05-14T19:52:19.129Z,8.67
2019-05-14T19:54:45.382Z,8.59
2019-05-14T19:57:11.920Z,8.52
2019-05-14T19:59:38.657Z,8.49
2019-05-14T20:02:04.985Z,8.43
2019-05-14T20:04:31.864Z,8.34
2019-05-14T20:06:59.681Z,8.27
2019-05-14T20:09:30.311Z,8.19
2019-05-14T20:11:58.584Z,8.14
2019-05-14T20:14:28.686Z,8.10
2019-05-14T20:16:58.332Z,8.02
2019-05-14T20:19:28.713Z,7.96
2019-05-14T20:21:58.751Z,7.92
2019-05-14T20:24:28.271Z,7.86
2019-05-14T20:27:07.848Z,7.80
2019-05-14T20:29:28.148Z,7.73
2019-05-14T20:31:54.906Z,7.65
2019-05-14T20:34:22.421Z,7.58
2019-05-14T20:36:50.342Z,7.52
2019-05-14T20:39:18.222Z,7.42
2019-05-14T20:41:45.661Z,7.34
2019-05-14T20:44:13.142Z,7.25
2019-05-14T20:46:39.774Z,7.18
2019-05-14T20:49:08.785Z,7.11
2019-05-14T20:51:35.881Z,7.05
2019-05-14T20:54:08.898Z,6.99
2019-05-14T20:56:40.001Z,6.93
2019-05-14T20:59:08.350Z,6.86
2019-05-14T21:01:38.832Z,6.82
2019-05-14T21:04:09.015Z,6.78
2019-05-14T21:06:39.056Z,6.70
2019-05-14T21:09:07.880Z,6.61
2019-05-14T21:11:34.489Z,6.56
2019-05-14T21:14:03.675Z,6.50
2019-05-14T21:16:32.198Z,4.92
2019-05-14T21:19:03.506Z,6.34
2019-05-14T21:21:30.198Z,6.27
2019-05-14T21:23:58.644Z,6.24
2019-05-14T21:26:25.281Z,6.20
2019-05-14T21:28:51.905Z,6.13
2019-05-14T21:31:19.544Z,6.07
2019-05-14T21:33:49.780Z,5.99
2019-05-14T21:36:15.957Z,5.89
2019-05-14T21:38:42.287Z,5.82
2019-05-14T21:41:09.505Z,5.75
2019-05-14T21:43:35.726Z,5.65
2019-05-14T21:46:02.046Z,5.58
2019-05-14T21:48:29.156Z,5.51
2019-05-14T21:50:55.999Z,5.45
2019-05-14T21:53:22.453Z,5.40
2019-05-14T21:55:49.298Z,5.34
2019-05-14T21:58:15.775Z,5.27
2019-05-14T22:00:45.076Z,5.19
2019-05-14T22:03:20.510Z,5.14
2019-05-14T22:05:44.466Z,5.08
2019-05-14T22:08:10.783Z,5.02
2019-05-14T22:10:39.759Z,4.96
2019-05-14T22:13:05.670Z,4.91
2019-05-14T22:15:32.495Z,4.87
2019-05-14T22:18:00.260Z,4.85
2019-05-14T22:20:28.860Z,3.26
2019-05-14T22:22:55.548Z,4.79
2019-05-14T22:25:22.025Z,4.77
2019-05-14T22:27:49.537Z,4.73
2019-05-14T22:30:18.188Z,4.68
2019-05-14T22:32:45.451Z,4.65
2019-05-14T22:35:12.282Z,4.61
2019-05-14T22:37:39.023Z,4.59
2019-05-14T22:40:06.625Z,4.55
2019-05-14T22:42:32.883Z,4.51
2019-05-14T22:44:59.295Z,4.48
2019-05-14T22:47:25.753Z,4.44
2019-05-14T22:49:51.791Z,4.41
2019-05-14T22:52:18.959Z,4.36
2019-05-14T22:54:45.906Z,4.31
2019-05-14T22:57:12.038Z,4.27
2019-05-14T22:59:39.197Z,4.22
2019-05-14T23:02:08.406Z,4.18
2019-05-14T23:04:34.878Z,4.16
2019-05-14T23:07:01.340Z,4.13
2019-05-14T23:09:27.875Z,4.13
2019-05-14T23:11:55.943Z,4.12
2019-05-14T23:14:22.219Z,4.13
2019-05-14T23:16:49.230Z,4.10
2019-05-14T23:19:15.604Z,4.03
2019-05-14T23:21:42.119Z,3.99
2019-05-14T23:24:12.898Z,3.93
2019-05-14T23:26:39.404Z,3.86
2019-05-14T23:29:06.519Z,3.78
2019-05-14T23:31:32.996Z,3.70
2019-05-14T23:33:59.415Z,3.64
2019-05-14T23:36:25.560Z,3.61
2019-05-14T23:38:53.068Z,3.56
2019-05-14T23:41:19.246Z,3.52
2019-05-14T23:43:45.543Z,3.48
2019-05-14T23:46:11.755Z,3.42
2019-05-14T23:48:39.272Z,3.38
2019-05-14T23:51:07.945Z,3.34
2019-05-14T23:53:34.036Z,3.33
2019-05-14T23:56:00.333Z,3.29
2019-05-14T23:58:28.747Z,3.24
